IGO1131 VABB-VRMM
Flight info
| Callsign | IGO1131 |
|---|---|
| Flight time | N/A |
| Altitude | 35000 |
| Route | MABTA W15 MML/N0456F360 DCT AKLON DCT OSERA DCT PATLO |
| Aircraft | A320/M-SDE3FGHIRWY/LB1 |
Departure
| Time | 2026-04-27 16:27 |
|---|---|
| Airport | Chhatrapati Shivaji Maharaj International Airport (VABB) |
Arrival
| Time | N/A |
|---|---|
| Airport | Velana International Airport (VRMM) |
| Time | Latitude | Longitude | Altitude | Speed | Heading |
|---|---|---|---|---|---|
| 2026-04-27 15:51 | 19.09160 | 72.85525 | 49 ft | 0 kts | 1° |
| 2026-04-27 16:05 | 19.09159 | 72.85525 | 49 ft | 0 kts | 1° |
| 2026-04-27 16:16 | 19.09127 | 72.85525 | 46 ft | 3 kts | 359° |
| 2026-04-27 16:16 | 19.09093 | 72.85508 | 43 ft | 2 kts | 88° |
| 2026-04-27 16:17 | 19.09108 | 72.85525 | 45 ft | 3 kts | 0° |
| 2026-04-27 16:17 | 19.09093 | 72.85510 | 43 ft | 4 kts | 88° |
| 2026-04-27 16:18 | 19.09092 | 72.85479 | 47 ft | 0 kts | 89° |
| 2026-04-27 16:20 | 19.09092 | 72.85482 | 47 ft | 1 kts | 89° |
| 2026-04-27 16:20 | 19.09092 | 72.85495 | 44 ft | 3 kts | 90° |
| 2026-04-27 16:20 | 19.09093 | 72.85555 | 49 ft | 6 kts | 89° |
| 2026-04-27 16:21 | 19.09081 | 72.85595 | 47 ft | 6 kts | 141° |
| 2026-04-27 16:21 | 19.09029 | 72.85746 | 49 ft | 11 kts | 89° |
| 2026-04-27 16:22 | 19.09030 | 72.85829 | 49 ft | 12 kts | 89° |
| 2026-04-27 16:22 | 19.09033 | 72.86028 | 48 ft | 15 kts | 89° |
| 2026-04-27 16:22 | 19.09035 | 72.86143 | 48 ft | 16 kts | 90° |
| 2026-04-27 16:23 | 19.09036 | 72.86269 | 48 ft | 18 kts | 89° |
| 2026-04-27 16:23 | 19.09037 | 72.86553 | 49 ft | 21 kts | 90° |
| 2026-04-27 16:23 | 19.09040 | 72.86707 | 50 ft | 21 kts | 88° |
| 2026-04-27 16:24 | 19.09044 | 72.86870 | 50 ft | 23 kts | 89° |
| 2026-04-27 16:24 | 19.09049 | 72.87232 | 50 ft | 26 kts | 89° |
| 2026-04-27 16:25 | 19.09054 | 72.87621 | 49 ft | 24 kts | 89° |
| 2026-04-27 16:25 | 19.09005 | 72.87806 | 48 ft | 6 kts | 178° |
| 2026-04-27 16:26 | 19.08895 | 72.87801 | 48 ft | 9 kts | 217° |
| 2026-04-27 16:26 | 19.08883 | 72.87609 | 47 ft | 44 kts | 270° |
| 2026-04-27 16:27 | 19.08856 | 72.85754 | 49 ft | 160 kts | 269° |
| 2026-04-27 16:27 | 19.08818 | 72.82030 | 1397 ft | 179 kts | 271° |
| 2026-04-27 16:28 | 19.08778 | 72.79144 | 1830 ft | 216 kts | 269° |
| 2026-04-27 16:28 | 19.08722 | 72.76262 | 2244 ft | 255 kts | 270° |
| 2026-04-27 16:29 | 19.05572 | 72.72111 | 4083 ft | 287 kts | 183° |
| 2026-04-27 16:30 | 19.01453 | 72.74286 | 5579 ft | 297 kts | 149° |
| 2026-04-27 16:30 | 18.97453 | 72.75224 | 6950 ft | 298 kts | 181° |
| 2026-04-27 16:31 | 18.91272 | 72.74804 | 8713 ft | 299 kts | 185° |
| 2026-04-27 16:31 | 18.87132 | 72.74550 | 8822 ft | 297 kts | 183° |
| 2026-04-27 16:32 | 18.83695 | 72.74428 | 8821 ft | 297 kts | 182° |
| 2026-04-27 16:32 | 18.81630 | 72.74373 | 8821 ft | 297 kts | 182° |
| 2026-04-27 16:33 | 18.76848 | 72.74598 | 8860 ft | 299 kts | 165° |
| 2026-04-27 16:33 | 18.74864 | 72.75298 | 9499 ft | 301 kts | 162° |
| 2026-04-27 16:33 | 18.73519 | 72.75772 | 9961 ft | 302 kts | 162° |
| 2026-04-27 16:33 | 18.70768 | 72.76718 | 10215 ft | 328 kts | 163° |
| 2026-04-27 16:34 | 18.69304 | 72.77219 | 10305 ft | 340 kts | 162° |
| 2026-04-27 16:34 | 18.67019 | 72.78003 | 10664 ft | 349 kts | 162° |
| 2026-04-27 16:34 | 18.64697 | 72.78801 | 11193 ft | 353 kts | 162° |
| 2026-04-27 16:34 | 18.62361 | 72.79609 | 11775 ft | 354 kts | 162° |
| 2026-04-27 16:35 | 18.60016 | 72.80424 | 12339 ft | 356 kts | 162° |
| 2026-04-27 16:35 | 18.56888 | 72.81513 | 13101 ft | 359 kts | 162° |